Time;durP1;ratioP1;P1;durP2;ratioP2;P2;SDS_P1;SDS_P2;PMS_P1;PMS_P2;Temp;Humidity;BMP_temperature;BMP_pressure;BME280_temperature;BME280_humidity;BME280_pressure;Samples;Min_cycle;Max_cycle;Signal;HPM_P1;HPM_P2
2021/04/07 00:01:18;;;;;;;3.47;3.00;;;;;;;;;;5014926;28;20227;-79
2021/04/07 00:03:45;;;;;;;3.75;2.78;;;;;;;;;;5013949;28;20187;-79
2021/04/07 00:06:13;;;;;;;10.85;3.15;;;;;;;;;;5013137;28;20260;-80
2021/04/07 00:08:40;;;;;;;4.88;2.80;;;;;;;;;;5010371;28;20698;-81
2021/04/07 00:11:07;;;;;;;8.15;3.00;;;;;;;;;;5011307;28;20250;-79
2021/04/07 00:13:34;;;;;;;4.45;2.70;;;;;;;;;;5011544;28;20246;-81
2021/04/07 00:16:01;;;;;;;2.83;2.30;;;;;;;;;;5010913;28;20688;-79
2021/04/07 00:18:28;;;;;;;2.75;2.33;;;;;;;;;;5010476;28;20740;-81
2021/04/07 00:20:54;;;;;;;3.55;2.30;;;;;;;;;;5010581;28;20219;-80
2021/04/07 00:23:22;;;;;;;4.00;2.75;;;;;;;;;;5011097;28;20222;-80
2021/04/07 00:25:49;;;;;;;1.90;1.80;;;;;;;;;;5008423;28;20691;-80
2021/04/07 00:28:19;;;;;;;2.28;2.08;;;;;;;;;;5010641;28;20206;-80
2021/04/07 00:30:46;;;;;;;6.82;2.10;;;;;;;;;;5011061;28;20223;-80
2021/04/07 00:33:14;;;;;;;3.35;2.30;;;;;;;;;;5010859;28;20233;-79
2021/04/07 00:35:42;;;;;;;2.72;2.10;;;;;;;;;;5010908;28;20199;-80
2021/04/07 00:38:10;;;;;;;3.63;2.85;;;;;;;;;;5008475;28;20198;-80
2021/04/07 00:40:38;;;;;;;2.47;2.22;;;;;;;;;;5011781;28;20215;-81
2021/04/07 00:43:06;;;;;;;2.03;1.67;;;;;;;;;;5011400;28;20241;-80
2021/04/07 00:45:33;;;;;;;1.95;1.77;;;;;;;;;;5011701;28;20196;-81
2021/04/07 00:48:02;;;;;;;2.63;1.50;;;;;;;;;;5011630;28;20195;-81
2021/04/07 00:50:31;;;;;;;4.60;1.60;;;;;;;;;;5011386;28;20661;-80
2021/04/07 00:52:58;;;;;;;2.08;1.65;;;;;;;;;;5012840;28;20857;-79
2021/04/07 00:55:28;;;;;;;2.10;1.98;;;;;;;;;;5013155;28;20209;-81
2021/04/07 00:57:56;;;;;;;1.88;1.77;;;;;;;;;;5012473;28;20195;-81
2021/04/07 01:00:24;;;;;;;2.00;1.90;;;;;;;;;;5012577;28;20210;-81
2021/04/07 01:02:57;;;;;;;2.55;1.98;;;;;;;;;;5012663;28;20720;-80
2021/04/07 01:05:24;;;;;;;1.48;1.38;;;;;;;;;;5012391;28;20210;-80
2021/04/07 01:07:51;;;;;;;1.95;1.63;;;;;;;;;;5013067;28;20207;-81
2021/04/07 01:10:19;;;;;;;1.80;1.70;;;;;;;;;;5013225;28;20207;-80
2021/04/07 01:12:46;;;;;;;1.90;1.40;;;;;;;;;;5013182;28;20199;-80
2021/04/07 01:15:15;;;;;;;2.28;1.38;;;;;;;;;;5013403;28;20250;-80
2021/04/07 01:17:42;;;;;;;1.60;1.48;;;;;;;;;;5013280;28;20250;-79
2021/04/07 01:20:13;;;;;;;3.03;1.70;;;;;;;;;;5012956;28;20205;-81
2021/04/07 01:22:40;;;;;;;1.30;1.13;;;;;;;;;;5012388;28;20280;-80
2021/04/07 01:25:11;;;;;;;1.45;1.35;;;;;;;;;;5012836;28;20203;-81
2021/04/07 01:27:39;;;;;;;1.88;1.77;;;;;;;;;;5013233;28;20214;-79
2021/04/07 01:30:09;;;;;;;2.05;1.73;;;;;;;;;;5013385;28;20207;-81
2021/04/07 01:32:37;;;;;;;1.58;1.45;;;;;;;;;;5031288;28;20611;-80
2021/04/07 01:35:05;;;;;;;1.70;1.60;;;;;;;;;;5032021;28;20206;-81
2021/04/07 01:37:34;;;;;;;2.55;1.50;;;;;;;;;;5032421;28;20711;-81
2021/04/07 01:40:02;;;;;;;1.83;1.58;;;;;;;;;;5032417;28;20206;-80
2021/04/07 01:42:30;;;;;;;2.10;1.98;;;;;;;;;;5035651;28;20328;-80
2021/04/07 01:44:57;;;;;;;2.03;1.58;;;;;;;;;;5035429;28;20256;-80
2021/04/07 01:47:24;;;;;;;2.30;1.83;;;;;;;;;;5035940;28;20208;-81
2021/04/07 01:49:52;;;;;;;1.88;1.70;;;;;;;;;;5038695;28;20272;-78
2021/04/07 01:52:19;;;;;;;6.38;2.42;;;;;;;;;;5046506;28;20222;-79
2021/04/07 01:54:45;;;;;;;2.03;1.63;;;;;;;;;;5045611;28;20341;-79
2021/04/07 01:57:12;;;;;;;2.30;1.67;;;;;;;;;;5040325;28;20255;-81
2021/04/07 01:59:40;;;;;;;6.32;2.10;;;;;;;;;;5035544;28;20203;-80
2021/04/07 02:02:07;;;;;;;4.50;2.30;;;;;;;;;;5036461;28;20226;-81
2021/04/07 02:04:34;;;;;;;4.22;2.50;;;;;;;;;;5036611;28;20208;-80
2021/04/07 02:07:10;;;;;;;6.00;2.13;;;;;;;;;;5036795;28;20206;-81
2021/04/07 02:09:37;;;;;;;8.32;2.25;;;;;;;;;;5039547;28;20206;-80
2021/04/07 02:12:05;;;;;;;6.60;2.47;;;;;;;;;;5045979;28;20218;-79
2021/04/07 02:14:32;;;;;;;3.47;2.78;;;;;;;;;;5046277;28;20230;-78
2021/04/07 02:17:03;;;;;;;8.85;2.45;;;;;;;;;;5045379;28;20198;-80
2021/04/07 02:19:33;;;;;;;5.93;2.65;;;;;;;;;;5037258;28;20719;-79
2021/04/07 02:22:06;;;;;;;6.03;3.65;;;;;;;;;;5032433;28;20222;-79
2021/04/07 02:24:33;;;;;;;9.15;3.47;;;;;;;;;;5032718;28;20582;-80
2021/04/07 02:27:02;;;;;;;9.23;4.35;;;;;;;;;;5032158;28;20575;-79
2021/04/07 02:29:29;;;;;;;5.60;3.33;;;;;;;;;;5031559;28;20620;-79
2021/04/07 02:31:56;;;;;;;8.95;4.75;;;;;;;;;;5030986;28;20237;-79
2021/04/07 02:34:24;;;;;;;6.82;3.75;;;;;;;;;;5032231;28;20213;-79
2021/04/07 02:36:51;;;;;;;6.13;3.20;;;;;;;;;;5031886;28;20209;-80
2021/04/07 02:39:17;;;;;;;8.77;4.15;;;;;;;;;;5032308;28;20198;-79
2021/04/07 02:41:44;;;;;;;5.00;4.00;;;;;;;;;;5031684;28;20226;-79
2021/04/07 02:44:11;;;;;;;7.93;3.50;;;;;;;;;;5031218;28;20284;-79
2021/04/07 02:46:38;;;;;;;7.90;4.45;;;;;;;;;;5031719;28;20248;-78
2021/04/07 02:49:05;;;;;;;6.70;3.88;;;;;;;;;;5032373;28;20206;-80
2021/04/07 02:51:33;;;;;;;9.82;4.22;;;;;;;;;;5031173;28;20303;-79
2021/04/07 02:54:00;;;;;;;8.82;4.07;;;;;;;;;;5031219;28;20581;-80
2021/04/07 02:56:30;;;;;;;6.75;4.80;;;;;;;;;;5031571;28;20209;-79
2021/04/07 02:58:57;;;;;;;11.25;4.70;;;;;;;;;;5032253;28;20728;-79
2021/04/07 03:01:24;;;;;;;5.47;3.83;;;;;;;;;;5031776;28;20222;-79
2021/04/07 03:03:51;;;;;;;11.32;4.13;;;;;;;;;;5031942;28;20226;-80
2021/04/07 03:06:18;;;;;;;7.68;3.97;;;;;;;;;;5031663;28;20202;-80
2021/04/07 03:08:46;;;;;;;5.65;3.60;;;;;;;;;;5031828;28;20214;-79
2021/04/07 03:11:13;;;;;;;6.05;3.55;;;;;;;;;;5031448;28;20762;-79
2021/04/07 03:13:40;;;;;;;10.68;4.82;;;;;;;;;;5031465;28;20202;-80
2021/04/07 03:16:07;;;;;;;10.50;5.28;;;;;;;;;;5031772;28;20221;-80
2021/04/07 03:18:33;;;;;;;8.30;4.25;;;;;;;;;;5031811;28;20194;-79
2021/04/07 03:21:00;;;;;;;10.35;4.07;;;;;;;;;;5031419;28;20222;-79
2021/04/07 03:23:27;;;;;;;7.03;4.03;;;;;;;;;;5031535;28;20582;-79
2021/04/07 03:25:55;;;;;;;12.20;3.78;;;;;;;;;;5031047;28;20202;-79
2021/04/07 03:28:22;;;;;;;5.85;4.07;;;;;;;;;;5031461;28;20261;-80
2021/04/07 03:30:49;;;;;;;19.48;4.80;;;;;;;;;;5031931;28;20229;-80
2021/04/07 03:33:18;;;;;;;10.55;4.78;;;;;;;;;;5032372;28;20198;-81
2021/04/07 03:35:45;;;;;;;10.02;4.00;;;;;;;;;;5032999;28;20198;-80
2021/04/07 03:38:12;;;;;;;6.18;3.35;;;;;;;;;;5031945;28;20308;-80
2021/04/07 03:40:40;;;;;;;9.40;4.63;;;;;;;;;;5032177;28;20728;-79
2021/04/07 03:43:08;;;;;;;4.32;3.67;;;;;;;;;;5033078;28;20286;-81
2021/04/07 03:45:36;;;;;;;10.15;3.97;;;;;;;;;;5031883;28;20204;-80
2021/04/07 03:48:03;;;;;;;10.18;4.60;;;;;;;;;;5032404;28;20201;-80
2021/04/07 03:50:30;;;;;;;6.57;3.75;;;;;;;;;;5031991;28;20313;-80
2021/04/07 03:52:57;;;;;;;5.72;3.13;;;;;;;;;;5031941;28;20245;-80
2021/04/07 03:55:24;;;;;;;5.20;3.55;;;;;;;;;;5032261;28;20229;-79
2021/04/07 03:57:51;;;;;;;7.93;3.70;;;;;;;;;;5031115;28;20209;-80
2021/04/07 04:00:20;;;;;;;5.20;3.13;;;;;;;;;;5032401;28;20289;-79
2021/04/07 04:02:47;;;;;;;5.13;3.70;;;;;;;;;;5032466;28;20291;-80
2021/04/07 04:05:15;;;;;;;5.50;3.20;;;;;;;;;;5031457;28;20202;-80
2021/04/07 04:07:42;;;;;;;6.57;3.75;;;;;;;;;;5032990;28;20261;-80
2021/04/07 04:10:11;;;;;;;7.82;3.80;;;;;;;;;;5032159;28;20205;-80
2021/04/07 04:12:38;;;;;;;4.18;3.53;;;;;;;;;;5032147;28;20245;-77
2021/04/07 04:15:09;;;;;;;9.80;4.47;;;;;;;;;;5032207;28;20233;-79
2021/04/07 04:17:37;;;;;;;9.23;5.05;;;;;;;;;;5032406;28;20261;-80
2021/04/07 04:20:05;;;;;;;9.40;4.55;;;;;;;;;;5031509;28;20198;-81
2021/04/07 04:22:32;;;;;;;5.90;3.17;;;;;;;;;;5032256;28;20291;-81
2021/04/07 04:24:59;;;;;;;6.63;3.75;;;;;;;;;;5031425;28;20738;-81
2021/04/07 04:27:26;;;;;;;6.10;3.38;;;;;;;;;;5031008;28;20198;-81
2021/04/07 04:29:53;;;;;;;5.30;3.10;;;;;;;;;;5031676;28;20217;-80
2021/04/07 04:32:20;;;;;;;8.40;3.22;;;;;;;;;;5031524;28;20246;-81
2021/04/07 04:34:48;;;;;;;5.35;3.15;;;;;;;;;;5032245;28;20204;-79
2021/04/07 04:37:15;;;;;;;4.47;2.92;;;;;;;;;;5032484;28;20289;-80
2021/04/07 04:39:42;;;;;;;7.43;3.80;;;;;;;;;;5031523;28;20206;-80
2021/04/07 04:42:09;;;;;;;6.25;3.42;;;;;;;;;;5031727;28;20230;-80
2021/04/07 04:44:36;;;;;;;4.90;3.22;;;;;;;;;;5031875;28;20226;-80
2021/04/07 04:47:03;;;;;;;4.47;3.25;;;;;;;;;;5031516;28;20266;-80
2021/04/07 04:49:30;;;;;;;5.22;2.85;;;;;;;;;;5032227;28;20205;-80
2021/04/07 04:51:57;;;;;;;7.03;3.50;;;;;;;;;;5032865;28;20313;-80
2021/04/07 04:54:24;;;;;;;5.35;4.32;;;;;;;;;;5032538;28;20194;-80
2021/04/07 04:56:52;;;;;;;10.05;5.45;;;;;;;;;;5031495;28;20524;-80
2021/04/07 04:59:19;;;;;;;8.25;3.97;;;;;;;;;;5031877;28;20198;-80
2021/04/07 05:01:45;;;;;;;6.90;3.50;;;;;;;;;;5031434;28;20773;-79
2021/04/07 05:04:12;;;;;;;4.30;2.95;;;;;;;;;;5031398;28;20287;-81
2021/04/07 05:06:39;;;;;;;5.95;3.25;;;;;;;;;;5031768;28;20225;-80
2021/04/07 05:09:07;;;;;;;6.75;3.90;;;;;;;;;;5032167;28;20259;-79
2021/04/07 05:11:35;;;;;;;6.57;3.50;;;;;;;;;;5031769;28;20610;-79
2021/04/07 05:14:02;;;;;;;8.50;3.97;;;;;;;;;;5031708;28;20283;-81
2021/04/07 05:16:30;;;;;;;5.40;4.05;;;;;;;;;;5033752;28;20206;-80
2021/04/07 05:18:57;;;;;;;7.90;3.65;;;;;;;;;;5035294;28;20688;-80
2021/04/07 05:21:24;;;;;;;7.15;4.07;;;;;;;;;;5035125;28;20704;-80
2021/04/07 05:23:50;;;;;;;5.53;4.00;;;;;;;;;;5034753;28;20218;-79
2021/04/07 05:26:18;;;;;;;6.60;4.03;;;;;;;;;;5034837;28;20187;-80
2021/04/07 05:28:46;;;;;;;4.78;3.47;;;;;;;;;;5034649;28;20203;-80
2021/04/07 05:31:13;;;;;;;6.78;4.03;;;;;;;;;;5035980;28;20862;-79
2021/04/07 05:33:43;;;;;;;5.85;3.67;;;;;;;;;;5037852;28;20745;-79
2021/04/07 05:36:16;;;;;;;6.65;4.50;;;;;;;;;;5034749;28;20206;-79
2021/04/07 05:38:43;;;;;;;8.27;4.22;;;;;;;;;;5034900;28;20206;-80
2021/04/07 05:41:11;;;;;;;6.20;3.95;;;;;;;;;;5034479;28;20223;-80
2021/04/07 05:43:40;;;;;;;5.45;4.30;;;;;;;;;;5034613;28;20583;-78
2021/04/07 05:46:08;;;;;;;7.45;4.60;;;;;;;;;;5035195;28;20214;-80
2021/04/07 05:48:35;;;;;;;7.43;4.63;;;;;;;;;;5035978;28;20657;-81
2021/04/07 05:51:03;;;;;;;5.50;4.18;;;;;;;;;;5035973;28;20309;-81
2021/04/07 05:53:31;;;;;;;5.03;4.07;;;;;;;;;;5035403;28;20202;-81
2021/04/07 05:55:59;;;;;;;7.15;5.10;;;;;;;;;;5035150;28;20202;-81
2021/04/07 05:58:28;;;;;;;7.72;3.92;;;;;;;;;;5034613;28;20690;-80
2021/04/07 06:00:56;;;;;;;7.38;4.20;;;;;;;;;;5035597;28;20256;-81
2021/04/07 06:03:23;;;;;;;12.65;5.00;;;;;;;;;;5035517;28;20661;-81
2021/04/07 06:05:51;;;;;;;6.55;4.57;;;;;;;;;;5035987;28;20213;-80
2021/04/07 06:08:19;;;;;;;7.22;5.13;;;;;;;;;;5034822;28;20199;-80
2021/04/07 06:10:47;;;;;;;7.80;4.72;;;;;;;;;;5035544;28;20329;-80
2021/04/07 06:13:17;;;;;;;6.30;4.32;;;;;;;;;;5035484;28;20199;-80
2021/04/07 06:15:44;;;;;;;11.23;5.25;;;;;;;;;;5034994;28;20206;-80
2021/04/07 06:18:14;;;;;;;12.88;6.63;;;;;;;;;;5035065;28;20286;-80
2021/04/07 06:20:43;;;;;;;7.70;5.05;;;;;;;;;;5035518;28;20226;-80
2021/04/07 06:23:13;;;;;;;8.88;4.90;;;;;;;;;;5035114;28;20696;-80
2021/04/07 06:25:43;;;;;;;6.00;5.13;;;;;;;;;;5035098;28;20234;-80
2021/04/07 06:28:11;;;;;;;10.68;5.30;;;;;;;;;;5034415;28;20210;-80
2021/04/07 06:30:43;;;;;;;6.88;4.60;;;;;;;;;;5035124;28;20230;-80
2021/04/07 06:33:20;;;;;;;5.30;3.90;;;;;;;;;;5035205;28;20195;-80
2021/04/07 06:35:50;;;;;;;4.70;3.90;;;;;;;;;;5034725;28;20289;-80
2021/04/07 06:38:19;;;;;;;5.53;4.28;;;;;;;;;;5034666;28;20688;-80
2021/04/07 06:40:47;;;;;;;6.72;4.97;;;;;;;;;;5034990;28;20276;-80
2021/04/07 06:43:15;;;;;;;8.50;4.40;;;;;;;;;;5035357;28;20199;-80
2021/04/07 06:45:45;;;;;;;6.43;3.88;;;;;;;;;;5034367;28;20224;-80
2021/04/07 06:48:12;;;;;;;5.13;3.65;;;;;;;;;;5035544;28;20202;-80
2021/04/07 06:50:42;;;;;;;4.05;3.63;;;;;;;;;;5034383;28;20232;-80
2021/04/07 06:53:10;;;;;;;4.07;3.47;;;;;;;;;;5035219;28;20208;-80
2021/04/07 06:55:39;;;;;;;4.95;3.50;;;;;;;;;;5035171;28;20194;-80
2021/04/07 06:58:09;;;;;;;9.32;3.95;;;;;;;;;;5035353;28;20205;-80
2021/04/07 07:00:38;;;;;;;6.68;4.22;;;;;;;;;;5034979;28;20225;-80
2021/04/07 07:03:07;;;;;;;9.00;4.45;;;;;;;;;;5035277;28;20272;-81
2021/04/07 07:05:36;;;;;;;3.55;3.10;;;;;;;;;;5034968;28;20911;-80
2021/04/07 07:08:06;;;;;;;5.97;4.15;;;;;;;;;;5034895;28;20195;-80
2021/04/07 07:10:44;;;;;;;8.07;3.55;;;;;;;;;;5035445;28;20224;-81
2021/04/07 07:13:16;;;;;;;4.90;3.72;;;;;;;;;;5034705;28;20782;-83
2021/04/07 07:15:43;;;;;;;7.30;5.28;;;;;;;;;;5034477;28;20285;-81
2021/04/07 07:18:10;;;;;;;4.75;3.20;;;;;;;;;;5034673;28;20634;-81
2021/04/07 07:20:39;;;;;;;13.18;3.63;;;;;;;;;;5035307;28;20234;-81
2021/04/07 07:23:07;;;;;;;5.80;3.72;;;;;;;;;;5035212;28;20209;-81
2021/04/07 07:25:34;;;;;;;5.53;3.45;;;;;;;;;;5035047;28;20285;-81
2021/04/07 07:28:04;;;;;;;5.00;4.18;;;;;;;;;;5035494;28;20209;-81
2021/04/07 07:30:41;;;;;;;4.78;3.72;;;;;;;;;;5034823;28;20712;-81
2021/04/07 07:33:17;;;;;;;7.63;3.47;;;;;;;;;;5035062;28;20229;-81
2021/04/07 07:35:45;;;;;;;6.07;4.20;;;;;;;;;;5035028;28;20220;-81
2021/04/07 07:38:20;;;;;;;5.63;3.45;;;;;;;;;;5034474;28;20252;-81
2021/04/07 07:40:47;;;;;;;5.47;3.20;;;;;;;;;;5043681;28;20233;-80
2021/04/07 07:43:14;;;;;;;4.68;3.83;;;;;;;;;;5035104;28;20202;-81
2021/04/07 07:45:42;;;;;;;3.53;2.90;;;;;;;;;;5034537;28;20300;-81
2021/04/07 07:48:14;;;;;;;6.70;3.25;;;;;;;;;;5034309;28;20199;-81
2021/04/07 07:50:43;;;;;;;3.75;3.20;;;;;;;;;;5034410;28;20310;-81
2021/04/07 07:53:18;;;;;;;3.50;3.17;;;;;;;;;;5034790;28;20203;-81
2021/04/07 07:55:48;;;;;;;6.25;3.50;;;;;;;;;;5035427;28;20198;-81
2021/04/07 07:58:15;;;;;;;4.45;3.35;;;;;;;;;;5034569;28;20251;-83
2021/04/07 08:00:42;;;;;;;4.90;4.32;;;;;;;;;;5033832;28;20226;-82
2021/04/07 08:03:12;;;;;;;3.47;3.03;;;;;;;;;;5034796;28;20216;-83
2021/04/07 08:05:40;;;;;;;3.63;3.30;;;;;;;;;;5034569;28;20222;-80
2021/04/07 08:08:09;;;;;;;7.55;3.60;;;;;;;;;;5035343;28;20290;-83
2021/04/07 08:10:38;;;;;;;4.10;3.45;;;;;;;;;;5045662;28;20220;-82
2021/04/07 08:13:08;;;;;;;4.55;2.90;;;;;;;;;;5046159;28;20198;-80
2021/04/07 08:15:36;;;;;;;3.97;2.50;;;;;;;;;;5042708;28;20201;-83
2021/04/07 08:18:06;;;;;;;5.60;3.05;;;;;;;;;;5034765;28;20668;-81
2021/04/07 08:20:34;;;;;;;3.20;2.50;;;;;;;;;;5035176;28;20226;-81
2021/04/07 08:23:02;;;;;;;4.18;2.75;;;;;;;;;;5035215;28;20722;-81
2021/04/07 08:25:30;;;;;;;3.47;2.67;;;;;;;;;;5034601;28;20213;-81
2021/04/07 08:27:57;;;;;;;3.08;2.65;;;;;;;;;;5036953;28;20210;-81
2021/04/07 08:30:25;;;;;;;3.40;2.67;;;;;;;;;;5037569;28;20260;-81
2021/04/07 08:32:53;;;;;;;5.00;2.95;;;;;;;;;;5026859;28;20688;-81
2021/04/07 08:35:22;;;;;;;3.92;2.92;;;;;;;;;;5024895;28;20832;-81
2021/04/07 08:38:01;;;;;;;2.75;2.47;;;;;;;;;;5025386;28;20259;-82
2021/04/07 08:40:41;;;;;;;2.70;2.30;;;;;;;;;;5016564;28;20637;-81
2021/04/07 08:43:12;;;;;;;2.50;2.30;;;;;;;;;;5014732;28;20677;-81
2021/04/07 08:45:45;;;;;;;2.53;2.33;;;;;;;;;;5013682;28;20498;-81
2021/04/07 08:48:24;;;;;;;2.70;2.05;;;;;;;;;;5012779;28;20215;-81
2021/04/07 08:51:04;;;;;;;2.88;2.67;;;;;;;;;;5015580;28;20211;-81
2021/04/07 08:53:33;;;;;;;2.95;2.10;;;;;;;;;;5018757;28;20206;-81
2021/04/07 08:56:06;;;;;;;2.33;2.10;;;;;;;;;;5017419;28;20203;-81
2021/04/07 08:58:34;;;;;;;2.20;2.00;;;;;;;;;;5017719;28;20213;-81
2021/04/07 09:01:02;;;;;;;2.70;1.80;;;;;;;;;;5017520;28;20222;-81
2021/04/07 09:03:34;;;;;;;1.80;1.70;;;;;;;;;;5018001;28;20231;-82
2021/04/07 09:06:01;;;;;;;3.47;2.40;;;;;;;;;;5017217;28;20693;-81
2021/04/07 09:08:28;;;;;;;2.20;2.00;;;;;;;;;;5017336;28;20737;-81
2021/04/07 09:10:57;;;;;;;2.42;2.05;;;;;;;;;;5016950;28;20254;-81
2021/04/07 09:13:27;;;;;;;1.92;1.70;;;;;;;;;;5017467;28;20211;-81
2021/04/07 09:16:00;;;;;;;2.75;1.90;;;;;;;;;;5016289;28;20709;-82
2021/04/07 09:18:36;;;;;;;3.33;2.28;;;;;;;;;;5017041;28;20767;-82
2021/04/07 09:21:05;;;;;;;2.20;2.10;;;;;;;;;;5017728;28;20227;-82
2021/04/07 09:23:34;;;;;;;2.42;1.92;;;;;;;;;;5017547;28;20210;-82
2021/04/07 09:26:09;;;;;;;2.50;2.30;;;;;;;;;;5016409;28;20230;-82
2021/04/07 09:28:40;;;;;;;3.58;2.30;;;;;;;;;;5017005;28;20199;-82
2021/04/07 09:31:12;;;;;;;2.50;2.30;;;;;;;;;;5021945;28;20226;-82
2021/04/07 09:33:41;;;;;;;2.10;1.90;;;;;;;;;;5035671;28;20672;-82
2021/04/07 09:36:09;;;;;;;1.70;1.60;;;;;;;;;;5025209;28;20191;-82
2021/04/07 09:38:43;;;;;;;2.65;2.10;;;;;;;;;;5016149;28;20201;-82
2021/04/07 09:41:13;;;;;;;2.92;2.25;;;;;;;;;;5015550;28;20265;-82
2021/04/07 09:43:41;;;;;;;1.98;1.88;;;;;;;;;;5016177;28;20188;-81
2021/04/07 09:46:09;;;;;;;1.95;1.83;;;;;;;;;;5017752;28;20281;-81
2021/04/07 09:48:42;;;;;;;1.92;1.80;;;;;;;;;;5024389;28;20195;-82
2021/04/07 09:51:21;;;;;;;2.60;2.28;;;;;;;;;;5022842;28;20677;-82
2021/04/07 09:53:48;;;;;;;1.95;1.85;;;;;;;;;;5016640;28;20198;-82
2021/04/07 09:56:16;;;;;;;2.28;2.10;;;;;;;;;;5014642;28;20214;-82
2021/04/07 09:58:44;;;;;;;2.90;2.55;;;;;;;;;;5014849;28;20708;-82
2021/04/07 10:01:14;;;;;;;2.33;2.13;;;;;;;;;;5014139;28;20621;-82
2021/04/07 10:03:49;;;;;;;2.15;1.95;;;;;;;;;;5014318;28;20286;-82
2021/04/07 10:06:20;;;;;;;1.92;1.83;;;;;;;;;;5013959;28;20696;-82
2021/04/07 10:08:59;;;;;;;2.88;2.47;;;;;;;;;;5014622;28;20337;-81
2021/04/07 10:11:26;;;;;;;1.75;1.65;;;;;;;;;;5014402;28;20705;-82
2021/04/07 10:13:54;;;;;;;2.33;2.13;;;;;;;;;;5014060;28;20663;-82
2021/04/07 10:16:23;;;;;;;2.10;2.00;;;;;;;;;;5013585;28;20199;-82
2021/04/07 10:18:51;;;;;;;2.83;2.63;;;;;;;;;;5014422;28;20202;-82
2021/04/07 10:21:20;;;;;;;2.13;2.00;;;;;;;;;;5014083;28;20222;-82
2021/04/07 10:23:48;;;;;;;2.00;1.90;;;;;;;;;;5013885;28;20294;-82
2021/04/07 10:26:16;;;;;;;2.03;1.92;;;;;;;;;;5013192;28;20226;-82
2021/04/07 10:28:56;;;;;;;1.88;1.77;;;;;;;;;;5013641;28;20207;-82
2021/04/07 10:31:24;;;;;;;2.10;1.90;;;;;;;;;;5013419;28;20304;-82
2021/04/07 10:34:03;;;;;;;1.83;1.73;;;;;;;;;;5013822;28;20210;-82
2021/04/07 10:36:31;;;;;;;1.35;1.30;;;;;;;;;;5014230;28;20289;-81
2021/04/07 10:38:59;;;;;;;1.60;1.50;;;;;;;;;;5013829;28;21145;-81
2021/04/07 10:41:27;;;;;;;1.98;1.88;;;;;;;;;;5013208;28;20796;-82
2021/04/07 10:43:54;;;;;;;1.98;1.88;;;;;;;;;;5014231;28;20206;-83
2021/04/07 10:46:31;;;;;;;1.83;1.73;;;;;;;;;;5013569;28;20290;-81
2021/04/07 10:48:59;;;;;;;2.40;1.80;;;;;;;;;;5014841;28;20631;-81
2021/04/07 10:51:29;;;;;;;3.30;1.70;;;;;;;;;;5014154;28;20594;-81
2021/04/07 10:53:59;;;;;;;1.52;1.42;;;;;;;;;;5014949;28;20203;-81
2021/04/07 10:56:27;;;;;;;1.65;1.55;;;;;;;;;;5014281;28;20253;-81
2021/04/07 10:58:57;;;;;;;1.60;1.50;;;;;;;;;;5014749;28;20541;-81
2021/04/07 11:01:29;;;;;;;1.60;1.50;;;;;;;;;;5014581;28;20270;-81
2021/04/07 11:03:57;;;;;;;1.75;1.65;;;;;;;;;;5014589;28;20187;-81
2021/04/07 11:06:25;;;;;;;1.58;1.48;;;;;;;;;;5014033;28;20257;-81
2021/04/07 11:08:53;;;;;;;2.13;2.03;;;;;;;;;;5014267;28;20272;-82
2021/04/07 11:11:21;;;;;;;2.00;1.75;;;;;;;;;;5014015;28;20728;-81
2021/04/07 11:13:49;;;;;;;1.80;1.70;;;;;;;;;;5012526;28;20623;-81
2021/04/07 11:16:17;;;;;;;1.73;1.63;;;;;;;;;;5013726;28;20630;-82
2021/04/07 11:18:46;;;;;;;1.88;1.70;;;;;;;;;;5019867;28;20184;-81
2021/04/07 11:21:14;;;;;;;1.70;1.60;;;;;;;;;;5020963;28;20230;-83
2021/04/07 11:23:42;;;;;;;2.08;1.98;;;;;;;;;;5017519;28;20530;-83
2021/04/07 11:26:09;;;;;;;2.00;1.90;;;;;;;;;;5014925;28;20230;-84
2021/04/07 11:28:37;;;;;;;1.90;1.80;;;;;;;;;;5015870;28;20203;-83
2021/04/07 11:31:08;;;;;;;1.88;1.77;;;;;;;;;;5020767;28;20234;-83
2021/04/07 11:33:44;;;;;;;1.92;1.83;;;;;;;;;;5036080;28;20206;-83
2021/04/07 11:39:09;;;;;;;1.70;1.60;;;;;;;;;;5031937;28;20620;-83
2021/04/07 11:44:31;;;;;;;1.65;1.55;;;;;;;;;;4997212;28;20201;-83
2021/04/07 11:46:59;;;;;;;1.88;1.77;;;;;;;;;;5032384;28;20253;-83
2021/04/07 11:49:26;;;;;;;3.08;1.63;;;;;;;;;;5032554;28;20190;-83
2021/04/07 11:51:54;;;;;;;2.55;2.03;;;;;;;;;;5033196;28;20218;-83
2021/04/07 11:54:21;;;;;;;2.90;2.15;;;;;;;;;;5033125;28;20236;-83
2021/04/07 11:56:49;;;;;;;1.90;1.80;;;;;;;;;;5033773;28;20207;-83
2021/04/07 11:59:17;;;;;;;1.75;1.65;;;;;;;;;;5033678;28;20672;-83
2021/04/07 12:01:47;;;;;;;1.70;1.60;;;;;;;;;;5033485;28;20222;-82
2021/04/07 12:04:14;;;;;;;1.80;1.70;;;;;;;;;;5033177;28;20202;-83
2021/04/07 12:06:42;;;;;;;1.75;1.65;;;;;;;;;;5034279;28;20225;-83
2021/04/07 12:09:10;;;;;;;1.65;1.52;;;;;;;;;;5034400;28;20201;-83
2021/04/07 12:11:37;;;;;;;1.83;1.63;;;;;;;;;;5034487;28;20708;-82
2021/04/07 12:14:07;;;;;;;1.92;1.83;;;;;;;;;;5035127;28;20202;-82
2021/04/07 12:16:34;;;;;;;1.85;1.60;;;;;;;;;;5035170;28;20225;-82
2021/04/07 12:19:02;;;;;;;1.83;1.73;;;;;;;;;;5034793;28;20202;-82
2021/04/07 12:21:29;;;;;;;1.77;1.67;;;;;;;;;;5034342;28;20233;-82
2021/04/07 12:23:56;;;;;;;1.65;1.55;;;;;;;;;;5034303;28;20552;-82
2021/04/07 12:26:23;;;;;;;1.95;1.77;;;;;;;;;;5033606;28;20313;-83
2021/04/07 12:28:50;;;;;;;1.98;1.88;;;;;;;;;;5034593;28;20186;-83
2021/04/07 12:31:19;;;;;;;2.53;2.00;;;;;;;;;;5035219;28;20234;-83
2021/04/07 12:33:50;;;;;;;2.15;1.95;;;;;;;;;;5035034;28;20202;-82
2021/04/07 12:36:18;;;;;;;2.38;2.17;;;;;;;;;;5033222;28;20220;-83
2021/04/07 12:38:45;;;;;;;2.75;2.55;;;;;;;;;;5033993;28;20214;-81
2021/04/07 12:41:18;;;;;;;2.75;2.55;;;;;;;;;;5034347;28;20246;-82
2021/04/07 12:43:46;;;;;;;3.58;3.28;;;;;;;;;;5034012;28;20345;-83
2021/04/07 12:46:13;;;;;;;3.13;2.80;;;;;;;;;;5033086;28;20221;-83
2021/04/07 12:48:40;;;;;;;2.60;2.40;;;;;;;;;;5033263;28;20297;-82
2021/04/07 12:51:07;;;;;;;2.72;2.53;;;;;;;;;;5033734;28;20226;-83
2021/04/07 12:53:34;;;;;;;4.53;2.13;;;;;;;;;;5033277;28;20241;-83
2021/04/07 12:56:01;;;;;;;2.78;2.58;;;;;;;;;;5032660;28;20668;-83
2021/04/07 12:58:28;;;;;;;2.80;2.60;;;;;;;;;;5033116;28;20202;-82
2021/04/07 13:00:56;;;;;;;2.97;2.70;;;;;;;;;;5032033;28;20229;-83
2021/04/07 13:03:23;;;;;;;5.82;2.47;;;;;;;;;;5033861;28;20202;-83
2021/04/07 13:05:50;;;;;;;3.70;2.50;;;;;;;;;;5032229;28;20253;-83
2021/04/07 13:08:17;;;;;;;2.72;2.53;;;;;;;;;;5033626;28;20253;-83
2021/04/07 13:11:21;;;;;;;3.28;2.97;;;;;;;;;;5033234;28;20233;-83
2021/04/07 13:13:48;;;;;;;3.03;2.83;;;;;;;;;;4954508;29;20201;-83
2021/04/07 13:16:16;;;;;;;3.80;2.70;;;;;;;;;;4951286;29;20288;-84
2021/04/07 13:18:43;;;;;;;3.15;2.88;;;;;;;;;;4988846;28;20203;-83
2021/04/07 13:21:12;;;;;;;3.15;2.85;;;;;;;;;;5032548;28;20229;-84
2021/04/07 13:23:40;;;;;;;3.00;2.75;;;;;;;;;;5033202;28;20211;-83
2021/04/07 13:26:09;;;;;;;3.63;3.30;;;;;;;;;;5033266;28;20210;-83
2021/04/07 13:28:36;;;;;;;3.33;2.47;;;;;;;;;;5032783;28;20759;-83
2021/04/07 13:31:04;;;;;;;3.33;3.03;;;;;;;;;;5033059;28;20238;-83
2021/04/07 13:33:36;;;;;;;3.65;3.13;;;;;;;;;;5032900;28;20637;-83
2021/04/07 13:36:06;;;;;;;6.20;3.40;;;;;;;;;;5032415;28;20210;-83
2021/04/07 13:38:39;;;;;;;4.93;3.53;;;;;;;;;;5036376;28;20230;-83
2021/04/07 13:41:29;;;;;;;4.80;3.05;;;;;;;;;;5036361;28;20233;-83
2021/04/07 13:43:56;;;;;;;3.25;3.00;;;;;;;;;;5036248;28;20587;-83
2021/04/07 13:46:23;;;;;;;4.57;3.05;;;;;;;;;;5035621;28;20667;-83
2021/04/07 13:48:52;;;;;;;3.50;3.25;;;;;;;;;;5036882;28;20644;-83
2021/04/07 13:51:19;;;;;;;3.55;3.20;;;;;;;;;;5036823;28;20253;-83
2021/04/07 13:53:48;;;;;;;3.70;3.40;;;;;;;;;;5036602;28;20713;-83
2021/04/07 13:56:18;;;;;;;5.00;4.32;;;;;;;;;;5036045;28;20221;-83
2021/04/07 13:58:45;;;;;;;4.18;3.42;;;;;;;;;;5036322;28;20691;-83
2021/04/07 14:01:13;;;;;;;6.97;4.57;;;;;;;;;;5036092;28;20222;-83
2021/04/07 14:03:40;;;;;;;3.10;2.90;;;;;;;;;;5036165;28;20595;-83
2021/04/07 14:06:08;;;;;;;3.15;2.85;;;;;;;;;;5035840;28;20186;-83
2021/04/07 14:08:36;;;;;;;4.05;3.00;;;;;;;;;;5036899;28;20340;-83
2021/04/07 14:11:03;;;;;;;3.08;2.78;;;;;;;;;;5036812;28;20623;-83
2021/04/07 14:13:30;;;;;;;2.70;2.50;;;;;;;;;;5036140;28;20202;-83
2021/04/07 14:15:57;;;;;;;3.05;2.75;;;;;;;;;;5035652;28;20206;-83
2021/04/07 14:18:24;;;;;;;3.55;3.25;;;;;;;;;;5036098;28;20198;-84
2021/04/07 14:20:52;;;;;;;5.70;2.60;;;;;;;;;;5036055;28;20708;-83
2021/04/07 14:23:20;;;;;;;4.03;3.63;;;;;;;;;;5036542;28;20205;-83
2021/04/07 14:25:48;;;;;;;4.20;3.45;;;;;;;;;;5035922;28;20587;-83
2021/04/07 14:28:15;;;;;;;3.50;3.20;;;;;;;;;;5036385;28;20226;-83
2021/04/07 14:30:42;;;;;;;2.80;2.60;;;;;;;;;;5035494;28;20226;-83
2021/04/07 14:33:09;;;;;;;2.92;2.70;;;;;;;;;;5036229;28;20203;-83
2021/04/07 14:35:36;;;;;;;3.88;2.63;;;;;;;;;;5036319;28;20201;-83
2021/04/07 14:38:03;;;;;;;3.45;2.72;;;;;;;;;;5037254;28;20735;-83
2021/04/07 14:40:31;;;;;;;2.97;2.78;;;;;;;;;;5036815;28;20281;-83
2021/04/07 14:42:58;;;;;;;2.13;2.03;;;;;;;;;;5035600;28;20207;-83
2021/04/07 14:45:26;;;;;;;3.13;2.60;;;;;;;;;;5035876;28;20194;-83
2021/04/07 14:47:53;;;;;;;2.95;2.75;;;;;;;;;;5036296;28;20226;-83
2021/04/07 14:50:24;;;;;;;2.63;1.80;;;;;;;;;;5036279;28;20248;-83
2021/04/07 14:52:53;;;;;;;2.38;2.17;;;;;;;;;;5036911;28;20206;-83
2021/04/07 14:55:20;;;;;;;2.53;2.10;;;;;;;;;;5036317;28;20297;-83
2021/04/07 14:57:47;;;;;;;2.13;1.92;;;;;;;;;;5036444;28;20642;-83